Nashville, TN

04:05 CDT le 27 août 2014 (GMT -0500)
Cumberland Gardens | Change Station
CLOSE
Current Station
Stations météorologiques personnelles
Location: Nashville, TN
Altitude: 476 ft
Stations météo à proximité

Alt. 476 ft 36.18 °N, 86.82 °W | Updated 50 seconds ago

Partly Cloudy
Partiellement nuageux
73.4 ° F
Paraît 73.4 ° F
N
0.0
Vent Variable Vent de Ouest
Gusts 0.0 mph

Aujourd'hui
Haut(e) -- | Bas -- ° F
--% Risque de précip.
Hier
Haut(e) -- | Bas -- ° F
Precip. -- pouce
6:14 AM 7:21 PM
Lune montante, 3% visible
Pression 30.06 pouce
Visibilité 10.0 Miles terrestres
Nuages Peu 4600 ft
Point de rosée 72 ° F
Humidité 95%
Précipitations 0.00 pouce
Profondeur de la couche neigeuse Non disponible.
UV 0 sur 12
Pollen 10.00 sur 12
Ozone Bon
PM2.5 Moyen
Flu Activity Non disponible.
METAR KBNA 270853Z 00000KT 10SM FEW046 22/21 A3008 RMK AO2 SLP178 T02170206 53000

More Conditions Fewer Conditions

Pression 30.06 pouce
Visibilité 10.0 Miles terrestres
Nuages Peu 4600 ft
Point de rosée 72 ° F
Humidité 95%
Précipitations 0.00 pouce
Profondeur de la couche neigeuse Non disponible.
UV 0 sur 12
Pollen 10.00 sur 12
Ozone Bon
PM2.5 Moyen
Flu Activity Non disponible.
METAR KBNA 270853Z 00000KT 10SM FEW046 22/21 A3008 RMK AO2 SLP178 T02170206 53000

More Conditions Fewer Conditions

10-Day Weather Forecast

Almanac

Astronomie

Aug. 27, 2014 Lever Coucher
Temps réel 06:14 CDT 19:21 CDT
Crépuscule civil 05:48 CDT 19:48 CDT
Crépuscule nautique 05:16 CDT 20:19 CDT
Crépuscule astronomique 04:43 CDT 20:52 CDT
Lune 08:05 CDT 20:19 CDT
Durée de lumière visible 13h 59m
Longueur du jour
13h 06m
Tomorrow will be 2m 9s shorter.
Lune montante, 3% of the Moon is Illuminated
Aujourd'hui
Lune montante
Sep 2
Premier quartier
Sep 8
Pleine lune
Sep 15
Dernier quartier
Sep 24
Nouveau

Extrêmes aujourd'hui

State Highs State Lows

Community

WunderPhotos

Upload Photos

1,747,661 Photos téléchargées !

Nearby

Qualité de l'air

  Qualité de l'air Indice de la qualité de l'air Polluant
Hier Moyen
OZONE
Hier Bon
PM2.5
Actuel Moyen
PM2.5
Actuel Bon
OZONE
mercredi Moyen
OZONE
mercredi Bon
PM2.5
jeudi Moyen
OZONE
jeudi Moyen
PM2.5

Épaisseur de neige

Station Depth Altitude
Pas de nouvelles chutes de neige

Activité sismique

Ville Distance Mag. Time & Date
No recent earthquake activity has been reported nearby.
Minimum magnitude displayed is 2.5.

Températures des eaux côtières

Lieu Température
Aucun rapport de station

Stations météo à proximité